createdAt,value
2022-11-26T00:01:46.604Z,16.23
2022-11-26T00:04:14.235Z,14.83
2022-11-26T00:06:44.730Z,12.93
2022-11-26T00:09:18.840Z,12.03
2022-11-26T00:11:46.567Z,15.97
2022-11-26T00:14:16.094Z,18.80
2022-11-26T00:16:45.709Z,13.43
2022-11-26T00:19:13.487Z,13.40
2022-11-26T00:21:49.560Z,17.60
2022-11-26T00:24:31.460Z,11.23
2022-11-26T00:27:13.028Z,16.70
2022-11-26T00:29:46.093Z,11.77
2022-11-26T00:32:35.227Z,12.43
2022-11-26T00:35:06.861Z,11.87
2022-11-26T00:37:49.502Z,15.17
2022-11-26T00:40:30.048Z,14.03
2022-11-26T00:43:12.222Z,14.00
2022-11-26T00:45:40.241Z,14.90
2022-11-26T00:48:16.919Z,14.43
2022-11-26T00:50:49.395Z,15.00
2022-11-26T00:53:32.064Z,22.30
2022-11-26T00:56:07.723Z,14.20
2022-11-26T00:58:36.571Z,13.57
2022-11-26T01:01:14.412Z,14.20
2022-11-26T01:03:49.507Z,12.83
2022-11-26T01:06:24.324Z,12.40
2022-11-26T01:09:10.059Z,16.40
2022-11-26T01:11:41.371Z,16.00
2022-11-26T01:14:25.034Z,19.53
2022-11-26T01:17:07.230Z,10.60
2022-11-26T01:19:39.849Z,14.53
2022-11-26T01:22:23.117Z,16.70
2022-11-26T01:24:59.272Z,16.00
2022-11-26T01:27:41.012Z,22.90
2022-11-26T01:30:33.385Z,11.73
2022-11-26T01:33:08.882Z,9.43
2022-11-26T01:35:46.631Z,11.73
2022-11-26T01:38:20.086Z,16.00
2022-11-26T01:41:17.620Z,18.73
2022-11-26T01:44:03.483Z,11.60
2022-11-26T01:46:38.730Z,14.50
2022-11-26T01:49:23.694Z,18.33
2022-11-26T01:52:12.336Z,16.23
2022-11-26T01:54:45.654Z,9.67
2022-11-26T01:57:20.548Z,10.90
2022-11-26T01:59:55.745Z,15.13
2022-11-26T02:02:26.445Z,15.80
2022-11-26T02:05:20.793Z,19.67
2022-11-26T02:07:58.028Z,13.27
2022-11-26T02:10:31.031Z,16.60
2022-11-26T02:13:08.726Z,15.80
2022-11-26T02:16:01.884Z,18.50
2022-11-26T02:18:44.622Z,16.27
2022-11-26T02:21:29.917Z,11.03
2022-11-26T02:24:25.865Z,12.70
2022-11-26T02:27:27.194Z,12.13
2022-11-26T02:30:07.733Z,12.37
2022-11-26T02:32:50.452Z,10.60
2022-11-26T02:35:23.962Z,17.00
2022-11-26T02:38:19.130Z,13.70
2022-11-26T02:40:58.329Z,13.93
2022-11-26T02:43:31.294Z,11.03
2022-11-26T02:46:07.170Z,14.97
2022-11-26T02:48:58.195Z,14.33
2022-11-26T02:51:35.413Z,11.27
2022-11-26T02:54:19.226Z,9.97
2022-11-26T02:56:50.547Z,11.50
2022-11-26T02:59:28.114Z,12.90
2022-11-26T03:02:13.581Z,21.50
2022-11-26T03:04:54.228Z,10.93
2022-11-26T03:07:48.333Z,11.23
2022-11-26T03:10:25.700Z,15.30
2022-11-26T03:12:56.740Z,17.53
2022-11-26T03:15:40.950Z,14.27
2022-11-26T03:18:18.877Z,13.40
2022-11-26T03:20:52.537Z,13.30
2022-11-26T03:23:47.080Z,13.13
2022-11-26T03:26:17.099Z,23.40
2022-11-26T03:29:03.809Z,13.40
2022-11-26T03:31:45.813Z,16.93
2022-11-26T03:34:27.397Z,14.60
2022-11-26T03:37:01.921Z,15.47
2022-11-26T03:39:46.677Z,15.27
2022-11-26T03:42:22.387Z,19.17
2022-11-26T03:44:56.034Z,13.80
2022-11-26T03:47:25.698Z,17.37
2022-11-26T03:50:00.374Z,13.97
2022-11-26T03:52:36.583Z,13.03
2022-11-26T03:55:14.574Z,18.03
2022-11-26T03:57:53.003Z,19.13
2022-11-26T04:00:22.155Z,13.37
2022-11-26T04:02:50.382Z,12.40
2022-11-26T04:05:22.655Z,15.77
2022-11-26T04:07:55.134Z,15.47
2022-11-26T04:10:30.334Z,12.97
2022-11-26T04:13:09.778Z,17.23
2022-11-26T04:15:44.313Z,10.07
2022-11-26T04:18:28.929Z,16.60
2022-11-26T04:21:09.869Z,17.90
2022-11-26T04:23:44.330Z,10.53
2022-11-26T04:26:15.003Z,11.83
2022-11-26T04:28:46.797Z,15.80
2022-11-26T04:31:25.388Z,13.57
2022-11-26T04:33:57.792Z,15.73
2022-11-26T04:36:40.400Z,15.00
2022-11-26T04:39:28.161Z,15.40
2022-11-26T04:42:03.775Z,13.43
2022-11-26T04:44:47.337Z,15.53
2022-11-26T04:47:17.555Z,16.03
2022-11-26T04:49:48.419Z,10.57
2022-11-26T04:52:26.754Z,18.67
2022-11-26T04:55:07.145Z,14.37
2022-11-26T04:58:01.806Z,20.03
2022-11-26T05:00:40.199Z,9.87
2022-11-26T05:06:07.840Z,14.00
2022-11-26T05:08:46.111Z,15.80
2022-11-26T05:11:24.844Z,14.27
2022-11-26T05:13:54.425Z,10.57
2022-11-26T05:16:33.615Z,10.63
2022-11-26T05:19:11.112Z,15.90
2022-11-26T05:21:49.797Z,8.03
2022-11-26T05:24:33.419Z,12.10
2022-11-26T05:27:02.401Z,13.53
2022-11-26T05:29:36.043Z,10.70
2022-11-26T05:32:07.697Z,10.50
2022-11-26T05:34:44.489Z,7.73
2022-11-26T05:37:18.695Z,9.70
2022-11-26T05:39:57.849Z,7.50
2022-11-26T05:42:33.241Z,6.57
2022-11-26T05:45:23.287Z,10.53
2022-11-26T05:47:53.727Z,9.87
2022-11-26T05:50:21.538Z,12.90
2022-11-26T05:52:57.516Z,10.83
2022-11-26T05:56:12.291Z,11.13
2022-11-26T05:58:44.113Z,13.00
2022-11-26T06:01:19.159Z,9.33
2022-11-26T06:03:46.982Z,12.20
2022-11-26T06:06:22.508Z,10.33
2022-11-26T06:08:51.981Z,9.00
2022-11-26T06:11:25.964Z,10.03
2022-11-26T06:14:05.479Z,13.10
2022-11-26T06:16:33.302Z,10.70
2022-11-26T06:19:08.540Z,10.23
2022-11-26T06:21:48.010Z,16.33
2022-11-26T06:24:29.444Z,9.10
2022-11-26T06:27:07.186Z,9.33
2022-11-26T06:29:40.812Z,9.40
2022-11-26T06:32:14.148Z,12.63
2022-11-26T06:34:58.689Z,11.30
2022-11-26T06:37:36.760Z,8.80
2022-11-26T06:40:09.685Z,8.13
2022-11-26T06:43:16.070Z,9.43
2022-11-26T06:46:24.680Z,6.27
2022-11-26T06:49:02.479Z,7.90
2022-11-26T06:51:30.259Z,5.73
2022-11-26T06:54:08.366Z,6.17
2022-11-26T06:56:36.631Z,4.13
2022-11-26T06:59:13.059Z,6.23
2022-11-26T07:01:50.924Z,6.43
2022-11-26T07:04:34.944Z,6.00
2022-11-26T07:07:07.985Z,10.23
2022-11-26T07:09:35.930Z,3.37
2022-11-26T07:12:08.645Z,4.97
2022-11-26T07:14:38.112Z,6.40
2022-11-26T07:17:07.630Z,4.57
2022-11-26T07:19:39.562Z,5.20
2022-11-26T07:22:11.630Z,5.60
2022-11-26T07:24:39.532Z,9.73
2022-11-26T07:27:07.426Z,6.53
2022-11-26T07:29:52.449Z,7.00
2022-11-26T07:32:22.210Z,6.40
2022-11-26T07:34:52.996Z,5.57
2022-11-26T07:37:28.540Z,5.10
2022-11-26T07:40:01.834Z,10.87
2022-11-26T07:42:38.177Z,6.63
2022-11-26T07:45:13.902Z,5.47
2022-11-26T07:47:42.925Z,8.20
2022-11-26T07:50:13.285Z,8.20
2022-11-26T07:52:50.990Z,10.20
2022-11-26T07:55:24.595Z,4.93
2022-11-26T07:57:55.058Z,10.93
2022-11-26T08:00:31.084Z,10.20
2022-11-26T08:03:09.251Z,10.00
2022-11-26T08:05:42.615Z,12.93
2022-11-26T08:08:18.752Z,15.83
2022-11-26T08:11:07.544Z,21.07
2022-11-26T08:13:48.366Z,25.53
2022-11-26T08:16:30.613Z,20.73
2022-11-26T08:19:05.874Z,43.43
2022-11-26T08:21:36.344Z,29.00
2022-11-26T08:24:06.995Z,22.23
2022-11-26T08:26:39.665Z,12.90
2022-11-26T08:29:13.679Z,12.77
2022-11-26T08:32:01.511Z,15.07
2022-11-26T08:34:31.555Z,9.67
2022-11-26T08:37:04.767Z,20.37
2022-11-26T08:39:34.113Z,10.53
2022-11-26T08:42:05.505Z,16.93
2022-11-26T08:44:44.470Z,17.73
2022-11-26T08:47:24.299Z,16.43
2022-11-26T08:50:04.548Z,12.10
2022-11-26T08:52:41.448Z,11.33
2022-11-26T08:55:14.095Z,7.93
2022-11-26T08:57:53.495Z,13.10
2022-11-26T09:00:30.849Z,14.00
2022-11-26T09:03:05.928Z,16.20
2022-11-26T09:05:47.474Z,18.47
2022-11-26T09:08:29.683Z,19.77
2022-11-26T09:14:21.229Z,23.97
2022-11-26T09:17:12.083Z,20.37
2022-11-26T09:19:41.217Z,20.40
2022-11-26T09:22:15.579Z,19.97
2022-11-26T09:24:45.857Z,27.93
2022-11-26T09:27:21.730Z,33.67
2022-11-26T09:29:49.453Z,29.33
2022-11-26T09:32:27.082Z,43.03
2022-11-26T09:35:04.811Z,40.70
2022-11-26T09:37:38.465Z,39.27
2022-11-26T09:40:13.233Z,52.20
2022-11-26T09:42:58.925Z,49.70
2022-11-26T09:45:52.621Z,28.27
2022-11-26T09:48:33.709Z,44.63
2022-11-26T09:51:09.648Z,24.47
2022-11-26T09:53:50.004Z,47.67
2022-11-26T09:56:38.452Z,36.57
2022-11-26T09:59:15.822Z,50.37
2022-11-26T10:01:49.405Z,33.13
2022-11-26T10:04:25.480Z,31.00
2022-11-26T10:07:22.383Z,24.83
2022-11-26T10:10:06.022Z,23.80
2022-11-26T10:13:16.898Z,35.53
2022-11-26T10:15:54.550Z,33.07
2022-11-26T10:18:36.796Z,29.07
2022-11-26T10:21:57.252Z,26.07
2022-11-26T10:24:27.282Z,31.67
2022-11-26T10:27:18.024Z,30.47
2022-11-26T10:29:52.132Z,26.27
2022-11-26T10:32:30.304Z,27.70
2022-11-26T10:35:13.829Z,31.83
2022-11-26T10:37:49.529Z,33.23
2022-11-26T10:40:34.088Z,26.87
2022-11-26T10:43:17.442Z,30.50
2022-11-26T10:46:09.734Z,28.80
2022-11-26T10:48:41.450Z,31.57
2022-11-26T10:54:32.443Z,31.03
2022-11-26T10:57:22.314Z,24.50
2022-11-26T11:00:04.485Z,27.17
2022-11-26T11:02:43.296Z,33.90
2022-11-26T11:05:33.333Z,28.13
2022-11-26T11:08:29.958Z,25.53
2022-11-26T11:11:30.146Z,26.70
2022-11-26T11:14:43.373Z,31.17
2022-11-26T11:17:38.047Z,26.70
2022-11-26T11:20:34.514Z,28.37
2022-11-26T11:23:34.695Z,31.73
2022-11-26T11:26:30.841Z,28.73
2022-11-26T11:29:03.254Z,42.43
2022-11-26T11:31:46.686Z,37.43
2022-11-26T11:34:25.245Z,34.83
2022-11-26T11:37:14.647Z,29.47
2022-11-26T11:40:20.777Z,33.83
2022-11-26T11:43:01.776Z,25.73
2022-11-26T11:45:49.996Z,38.63
2022-11-26T11:48:52.948Z,31.93
2022-11-26T11:51:44.243Z,28.93
2022-11-26T11:54:28.592Z,28.10
2022-11-26T11:57:18.721Z,41.80
2022-11-26T12:00:19.395Z,35.80
2022-11-26T12:03:09.372Z,28.80
2022-11-26T12:06:07.745Z,27.40
2022-11-26T12:08:59.206Z,31.77
2022-11-26T12:11:48.860Z,21.70
2022-11-26T12:14:31.037Z,28.70
2022-11-26T12:17:16.131Z,37.67
2022-11-26T12:19:58.821Z,28.50
2022-11-26T12:22:38.736Z,32.40
2022-11-26T12:25:30.079Z,40.47
2022-11-26T12:28:08.841Z,24.50
2022-11-26T12:30:53.574Z,37.53
2022-11-26T12:33:43.251Z,36.53
2022-11-26T12:36:35.218Z,31.80
2022-11-26T12:39:10.209Z,28.50
2022-11-26T12:41:52.905Z,33.30
2022-11-26T12:44:42.861Z,38.10
2022-11-26T12:47:25.301Z,30.33
2022-11-26T12:50:11.125Z,32.37
2022-11-26T12:52:54.725Z,32.80
2022-11-26T12:55:45.840Z,21.67
2022-11-26T12:58:21.930Z,25.83
2022-11-26T13:01:04.606Z,31.63
2022-11-26T13:04:35.588Z,37.40
2022-11-26T13:07:17.220Z,29.30
2022-11-26T13:10:27.097Z,40.27
2022-11-26T13:13:06.413Z,31.67
2022-11-26T13:15:49.579Z,21.40
2022-11-26T13:18:44.857Z,28.53
2022-11-26T13:21:46.183Z,38.13
2022-11-26T13:25:09.798Z,29.67
2022-11-26T13:27:57.677Z,28.73
2022-11-26T13:30:45.203Z,25.33
2022-11-26T13:33:43.746Z,30.50
2022-11-26T13:36:30.797Z,21.57
2022-11-26T13:39:32.723Z,32.10
2022-11-26T13:42:26.579Z,20.90
2022-11-26T13:45:25.752Z,26.47
2022-11-26T13:48:10.994Z,35.27
2022-11-26T13:50:48.143Z,27.23
2022-11-26T13:53:26.736Z,27.67
2022-11-26T13:56:04.200Z,26.07
2022-11-26T13:58:45.780Z,23.77
2022-11-26T14:01:44.605Z,28.97
2022-11-26T14:04:14.654Z,30.37
2022-11-26T14:07:17.815Z,26.70
2022-11-26T14:09:57.541Z,34.20
2022-11-26T14:13:06.262Z,30.13
2022-11-26T14:16:05.284Z,30.07
2022-11-26T14:18:58.864Z,28.67
2022-11-26T14:21:26.718Z,24.47
2022-11-26T14:24:23.400Z,34.80
2022-11-26T14:26:54.166Z,22.87
2022-11-26T14:29:27.555Z,19.10
2022-11-26T14:31:59.853Z,26.30
2022-11-26T14:34:47.165Z,28.97
2022-11-26T14:37:19.248Z,23.57
2022-11-26T14:40:05.479Z,20.70
2022-11-26T14:42:38.417Z,31.07
2022-11-26T14:45:21.338Z,20.10
2022-11-26T14:47:54.904Z,27.67
2022-11-26T14:50:29.838Z,24.60
2022-11-26T14:53:04.206Z,16.13
2022-11-26T14:55:37.761Z,21.33
2022-11-26T14:58:09.764Z,15.67
2022-11-26T15:00:37.898Z,22.40
2022-11-26T15:03:23.328Z,29.43
2022-11-26T15:05:51.042Z,19.67
2022-11-26T15:08:23.004Z,17.70
2022-11-26T15:10:58.724Z,16.40
2022-11-26T15:13:39.757Z,16.67
2022-11-26T15:16:31.250Z,17.93
2022-11-26T15:19:17.764Z,22.30
2022-11-26T15:21:48.605Z,15.23
2022-11-26T15:24:31.118Z,13.67
2022-11-26T15:27:03.574Z,15.20
2022-11-26T15:29:41.184Z,13.30
2022-11-26T15:32:50.885Z,19.43
2022-11-26T15:35:24.484Z,17.87
2022-11-26T15:37:58.940Z,12.87
2022-11-26T15:40:45.197Z,14.10
2022-11-26T15:43:27.009Z,17.93
2022-11-26T15:46:05.389Z,14.70
2022-11-26T15:48:57.725Z,12.53
2022-11-26T15:51:35.186Z,20.63
2022-11-26T15:54:21.084Z,14.70
2022-11-26T15:57:07.949Z,9.67
2022-11-26T15:59:42.448Z,13.50
2022-11-26T16:02:22.368Z,12.80
2022-11-26T16:04:53.264Z,14.07
2022-11-26T16:07:28.795Z,12.00
2022-11-26T16:10:23.954Z,7.47
2022-11-26T16:13:22.993Z,14.17
2022-11-26T16:16:09.772Z,8.53
2022-11-26T16:18:44.614Z,11.87
2022-11-26T16:21:27.614Z,19.43
2022-11-26T16:24:29.287Z,11.87
2022-11-26T16:27:03.401Z,10.80
2022-11-26T16:29:38.665Z,10.63
2022-11-26T16:32:10.683Z,11.27
2022-11-26T16:34:40.786Z,13.20
2022-11-26T16:37:24.130Z,19.90
2022-11-26T16:40:06.185Z,11.07
2022-11-26T16:42:39.334Z,10.17
2022-11-26T16:45:15.489Z,13.67
2022-11-26T16:47:46.648Z,15.47
2022-11-26T16:50:21.108Z,12.93
2022-11-26T16:53:04.624Z,14.70
2022-11-26T16:55:41.091Z,19.10
2022-11-26T16:58:18.708Z,11.60
2022-11-26T17:00:48.385Z,12.03
2022-11-26T17:03:23.447Z,12.50
2022-11-26T17:05:57.206Z,14.43
2022-11-26T17:11:35.828Z,11.07
2022-11-26T17:14:12.953Z,11.37
2022-11-26T17:16:45.788Z,12.63
2022-11-26T17:19:20.452Z,13.50
2022-11-26T17:21:53.277Z,7.80
2022-11-26T17:24:37.484Z,10.83
2022-11-26T17:27:23.283Z,16.00
2022-11-26T17:29:52.472Z,13.20
2022-11-26T17:32:22.357Z,8.87
2022-11-26T17:35:09.485Z,8.57
2022-11-26T17:37:37.155Z,14.00
2022-11-26T17:40:08.021Z,15.90
2022-11-26T17:42:39.581Z,9.23
2022-11-26T17:45:11.939Z,11.20
2022-11-26T17:47:59.364Z,12.37
2022-11-26T17:50:37.505Z,11.60
2022-11-26T17:53:11.583Z,10.20
2022-11-26T17:55:45.375Z,13.53
2022-11-26T17:58:31.870Z,11.03
2022-11-26T18:01:01.217Z,14.63
2022-11-26T18:03:39.018Z,14.77
2022-11-26T18:06:19.363Z,7.93
2022-11-26T18:08:56.675Z,10.67
2022-11-26T18:11:50.833Z,9.93
2022-11-26T18:14:22.640Z,16.27
2022-11-26T18:16:50.857Z,13.10
2022-11-26T18:19:21.899Z,11.90
2022-11-26T18:21:57.612Z,20.50
2022-11-26T18:24:27.105Z,11.00
2022-11-26T18:27:00.107Z,14.77
2022-11-26T18:29:31.326Z,15.30
2022-11-26T18:32:02.166Z,12.13
2022-11-26T18:34:33.206Z,15.07
2022-11-26T18:37:08.788Z,12.20
2022-11-26T18:39:38.152Z,18.80
2022-11-26T18:42:39.745Z,15.00
2022-11-26T18:45:20.156Z,17.17
2022-11-26T18:47:53.823Z,9.20
2022-11-26T18:50:24.188Z,15.10
2022-11-26T18:53:00.827Z,10.27
2022-11-26T18:55:30.494Z,14.97
2022-11-26T18:58:03.007Z,15.13
2022-11-26T19:00:45.947Z,11.53
2022-11-26T19:03:18.945Z,14.17
2022-11-26T19:05:54.244Z,14.00
2022-11-26T19:08:24.881Z,10.63
2022-11-26T19:10:57.796Z,15.33
2022-11-26T19:13:27.340Z,13.30
2022-11-26T19:16:16.039Z,19.20
2022-11-26T19:18:52.381Z,12.87
2022-11-26T19:21:21.856Z,13.20
2022-11-26T19:23:57.857Z,9.20
2022-11-26T19:26:33.559Z,11.47
2022-11-26T19:29:06.888Z,14.90
2022-11-26T19:31:39.643Z,11.80
2022-11-26T19:34:21.662Z,20.50
2022-11-26T19:36:49.419Z,20.30
2022-11-26T19:39:21.906Z,9.03
2022-11-26T19:41:54.245Z,11.90
2022-11-26T19:44:36.035Z,13.03
2022-11-26T19:47:08.443Z,12.77
2022-11-26T19:49:47.585Z,16.37
2022-11-26T19:52:15.350Z,15.33
2022-11-26T19:54:43.021Z,13.03
2022-11-26T19:57:12.280Z,16.23
2022-11-26T19:59:53.775Z,14.43
2022-11-26T20:02:24.187Z,18.67
2022-11-26T20:04:53.555Z,10.70
2022-11-26T20:07:21.305Z,12.70
2022-11-26T20:09:52.023Z,15.13
2022-11-26T20:12:28.678Z,12.33
2022-11-26T20:14:56.322Z,12.33
2022-11-26T20:17:27.750Z,10.90
2022-11-26T20:20:02.330Z,8.30
2022-11-26T20:22:37.411Z,10.83
2022-11-26T20:25:13.507Z,11.73
2022-11-26T20:27:48.738Z,18.70
2022-11-26T20:30:20.275Z,14.10
2022-11-26T20:32:51.304Z,15.90
2022-11-26T20:35:26.645Z,14.10
2022-11-26T20:38:00.775Z,14.40
2022-11-26T20:40:30.354Z,13.73
2022-11-26T20:43:00.474Z,12.20
2022-11-26T20:45:28.364Z,15.53
2022-11-26T20:48:02.107Z,17.40
2022-11-26T20:50:35.683Z,17.23
2022-11-26T20:53:08.877Z,11.67
2022-11-26T20:55:42.532Z,8.40
2022-11-26T20:58:10.338Z,16.77
2022-11-26T21:00:49.540Z,17.87
2022-11-26T21:03:19.492Z,13.20
2022-11-26T21:05:50.176Z,12.07
2022-11-26T21:08:23.944Z,12.67
2022-11-26T21:11:10.545Z,13.63
2022-11-26T21:13:47.776Z,15.27
2022-11-26T21:16:54.758Z,15.03
2022-11-26T21:19:26.864Z,9.93
2022-11-26T21:25:08.355Z,12.40
2022-11-26T21:27:40.819Z,11.83
2022-11-26T21:30:13.697Z,15.40
2022-11-26T21:32:45.303Z,9.23
2022-11-26T21:35:22.664Z,6.37
2022-11-26T21:37:50.499Z,9.53
2022-11-26T21:40:20.699Z,11.67
2022-11-26T21:42:54.613Z,9.10
2022-11-26T21:45:24.674Z,12.83
2022-11-26T21:48:09.447Z,11.57
2022-11-26T21:50:43.570Z,9.27
2022-11-26T21:53:19.496Z,12.20
2022-11-26T21:55:49.690Z,10.03
2022-11-26T21:58:18.527Z,9.67
2022-11-26T22:00:52.089Z,11.83
2022-11-26T22:03:22.179Z,8.67
2022-11-26T22:06:04.077Z,10.20
2022-11-26T22:08:53.109Z,6.97
2022-11-26T22:11:27.967Z,13.43
2022-11-26T22:14:00.529Z,13.93
2022-11-26T22:16:33.834Z,13.33
2022-11-26T22:19:03.785Z,12.83
2022-11-26T22:21:51.470Z,10.63
2022-11-26T22:24:25.415Z,12.33
2022-11-26T22:26:56.821Z,10.20
2022-11-26T22:29:33.177Z,12.77
2022-11-26T22:32:10.849Z,17.87
2022-11-26T22:34:43.982Z,6.90
2022-11-26T22:37:30.615Z,11.33
2022-11-26T22:40:01.256Z,13.10
2022-11-26T22:42:33.172Z,11.97
2022-11-26T22:45:12.840Z,12.13
2022-11-26T22:47:43.541Z,15.60
2022-11-26T22:50:17.845Z,15.20
2022-11-26T22:53:06.296Z,13.63
2022-11-26T22:55:41.231Z,16.70
2022-11-26T22:58:22.784Z,16.13
2022-11-26T23:00:58.433Z,13.90
2022-11-26T23:03:29.979Z,10.93
2022-11-26T23:06:28.446Z,14.63
2022-11-26T23:09:15.387Z,10.50
2022-11-26T23:11:44.145Z,13.10
2022-11-26T23:14:19.393Z,12.57
2022-11-26T23:16:52.436Z,14.10
2022-11-26T23:19:28.563Z,14.30
2022-11-26T23:22:02.189Z,14.23
2022-11-26T23:24:34.857Z,11.67
2022-11-26T23:27:17.120Z,11.33
2022-11-26T23:29:52.672Z,13.80
2022-11-26T23:32:20.414Z,12.33
2022-11-26T23:34:51.928Z,11.20
2022-11-26T23:37:24.886Z,10.50
2022-11-26T23:39:56.258Z,13.40
2022-11-26T23:42:24.432Z,9.03
2022-11-26T23:44:52.373Z,16.63
2022-11-26T23:47:23.730Z,10.90
2022-11-26T23:50:08.708Z,18.17
2022-11-26T23:52:44.759Z,12.20
2022-11-26T23:55:23.144Z,12.93
2022-11-26T23:57:52.940Z,12.77
